createdAt,value
2019-05-30T00:03:12.696Z,2.43
2019-05-30T00:08:16.698Z,2.13
2019-05-30T00:13:20.633Z,2.20
2019-05-30T00:18:24.551Z,2.30
2019-05-30T00:23:28.587Z,2.57
2019-05-30T00:28:32.566Z,1.90
2019-05-30T00:33:36.644Z,2.20
2019-05-30T00:38:40.708Z,2.30
2019-05-30T00:43:44.693Z,2.13
2019-05-30T00:48:48.729Z,2.60
2019-05-30T00:53:52.748Z,2.23
2019-05-30T00:58:56.684Z,2.20
2019-05-30T01:04:00.779Z,2.30
2019-05-30T01:09:07.432Z,1.73
2019-05-30T01:14:12.742Z,2.30
2019-05-30T01:19:16.767Z,1.70
2019-05-30T01:24:20.699Z,2.20
2019-05-30T01:29:24.691Z,1.87
2019-05-30T01:34:28.704Z,2.10
2019-05-30T01:39:32.651Z,2.60
2019-05-30T01:44:36.689Z,2.00
2019-05-30T01:49:40.683Z,2.20
2019-05-30T01:54:44.669Z,2.10
2019-05-30T01:59:48.652Z,2.20
2019-05-30T02:04:52.636Z,2.10
2019-05-30T02:09:56.608Z,2.33
2019-05-30T02:15:01.524Z,1.83
2019-05-30T02:20:09.977Z,2.07
2019-05-30T02:25:15.081Z,2.07
2019-05-30T02:30:19.683Z,2.00
2019-05-30T02:35:23.696Z,2.07
2019-05-30T02:40:28.950Z,2.20
2019-05-30T02:45:32.977Z,1.93
2019-05-30T02:50:37.023Z,2.27
2019-05-30T02:55:41.551Z,1.73
2019-05-30T03:00:45.588Z,1.90
2019-05-30T03:05:49.818Z,1.80
2019-05-30T03:10:53.850Z,1.93
2019-05-30T03:15:57.900Z,1.80
2019-05-30T03:21:03.266Z,1.87
2019-05-30T03:26:10.147Z,2.03
2019-05-30T03:31:23.154Z,2.10
2019-05-30T03:36:28.598Z,1.83
2019-05-30T03:41:25.013Z,1.87
2019-05-30T03:46:31.907Z,2.10
2019-05-30T03:51:36.743Z,2.10
2019-05-30T03:56:49.678Z,2.23
2019-05-30T04:02:06.501Z,1.90
2019-05-30T04:07:20.002Z,2.20
2019-05-30T04:12:29.638Z,2.00
2019-05-30T04:17:33.586Z,2.22
2019-05-30T04:22:38.624Z,2.47
2019-05-30T04:27:42.704Z,2.57
2019-05-30T04:32:46.677Z,3.30
2019-05-30T04:37:50.710Z,2.90
2019-05-30T04:42:54.692Z,2.27
2019-05-30T04:47:58.772Z,3.10
2019-05-30T04:53:02.921Z,3.00
2019-05-30T04:58:07.027Z,3.07
2019-05-30T05:03:11.328Z,2.80
2019-05-30T05:08:15.926Z,3.15
2019-05-30T05:13:20.452Z,3.10
2019-05-30T05:18:24.481Z,2.93
2019-05-30T05:23:28.424Z,2.70
2019-05-30T05:28:32.364Z,2.15
2019-05-30T05:33:36.317Z,2.60
2019-05-30T05:38:40.314Z,2.90
2019-05-30T05:43:44.262Z,2.47
2019-05-30T05:48:48.232Z,2.50
2019-05-30T05:53:52.192Z,3.08
2019-05-30T05:58:56.123Z,2.35
2019-05-30T06:04:12.677Z,3.10
2019-05-30T06:09:06.840Z,3.00
2019-05-30T06:14:10.774Z,2.00
2019-05-30T06:19:14.719Z,2.30
2019-05-30T06:24:19.609Z,3.15
2019-05-30T06:29:24.843Z,2.98
2019-05-30T06:34:38.458Z,2.60
2019-05-30T06:39:34.520Z,4.33
2019-05-30T06:44:38.539Z,2.45
2019-05-30T06:49:42.652Z,2.15
2019-05-30T06:54:46.699Z,2.85
2019-05-30T06:59:50.622Z,3.45
2019-05-30T07:04:55.129Z,2.87
2019-05-30T07:09:59.399Z,3.17
2019-05-30T07:15:05.160Z,2.40
2019-05-30T07:20:09.670Z,2.40
2019-05-30T07:25:14.516Z,2.50
2019-05-30T07:30:20.153Z,2.70
2019-05-30T07:35:24.196Z,2.60
2019-05-30T07:40:28.621Z,2.67
2019-05-30T07:45:33.170Z,2.65
2019-05-30T07:50:38.536Z,2.15
2019-05-30T07:55:43.100Z,2.35
2019-05-30T08:00:47.120Z,2.52
2019-05-30T08:05:51.136Z,2.50
2019-05-30T08:11:08.279Z,2.20
2019-05-30T08:16:00.736Z,2.52
2019-05-30T08:21:04.677Z,2.70
2019-05-30T08:26:08.612Z,3.05
2019-05-30T08:31:12.548Z,2.50
2019-05-30T08:36:16.511Z,2.02
2019-05-30T08:41:20.464Z,2.52
2019-05-30T08:46:24.440Z,3.05
2019-05-30T08:51:28.420Z,2.80
2019-05-30T08:56:33.024Z,2.75
2019-05-30T09:01:37.705Z,2.98
2019-05-30T09:06:42.027Z,3.10
2019-05-30T09:11:46.352Z,2.50
2019-05-30T09:16:51.146Z,3.33
2019-05-30T09:21:55.278Z,2.80
2019-05-30T09:26:59.214Z,3.30
2019-05-30T09:32:03.383Z,3.45
2019-05-30T09:37:07.620Z,2.90
2019-05-30T09:42:11.893Z,3.22
2019-05-30T09:47:16.073Z,3.20
2019-05-30T09:52:20.206Z,3.25
2019-05-30T09:57:24.347Z,2.98
2019-05-30T10:02:28.572Z,3.17
2019-05-30T10:07:32.689Z,2.90
2019-05-30T10:12:36.746Z,3.05
2019-05-30T10:17:40.682Z,2.92
2019-05-30T10:22:47.079Z,3.87
2019-05-30T10:27:51.168Z,4.03
2019-05-30T10:32:56.082Z,3.10
2019-05-30T10:38:00.325Z,3.25
2019-05-30T10:43:07.644Z,3.90
2019-05-30T10:48:10.070Z,3.40
2019-05-30T10:53:14.130Z,3.15
2019-05-30T10:58:18.185Z,3.80
2019-05-30T11:03:23.561Z,3.22
2019-05-30T11:08:30.549Z,2.90
2019-05-30T11:13:34.481Z,2.67
2019-05-30T11:18:38.740Z,2.80
2019-05-30T11:23:42.777Z,2.40
2019-05-30T11:28:46.839Z,3.08
2019-05-30T11:33:50.841Z,2.90
2019-05-30T11:38:55.332Z,2.77
2019-05-30T11:44:00.072Z,3.42
2019-05-30T11:49:05.199Z,3.20
2019-05-30T11:54:10.032Z,3.42
2019-05-30T11:59:13.973Z,3.45
2019-05-30T12:04:17.930Z,3.10
2019-05-30T12:09:21.903Z,2.77
2019-05-30T12:14:26.150Z,3.83
2019-05-30T12:19:30.251Z,4.30
2019-05-30T12:24:34.330Z,2.85
2019-05-30T12:29:38.259Z,3.20
2019-05-30T12:34:42.207Z,3.35
2019-05-30T12:39:46.156Z,3.45
2019-05-30T12:44:50.194Z,3.45
2019-05-30T12:49:55.130Z,3.77
2019-05-30T12:55:00.759Z,4.62
2019-05-30T13:00:19.105Z,3.37
2019-05-30T13:05:23.075Z,2.70
2019-05-30T13:10:27.116Z,2.52
2019-05-30T13:15:31.072Z,2.52
2019-05-30T13:20:35.223Z,3.40
2019-05-30T13:25:39.207Z,2.85
2019-05-30T13:45:58.129Z,4.37
2019-05-30T13:51:02.780Z,4.33
2019-05-30T13:56:07.789Z,3.00
2019-05-30T14:01:14.785Z,2.55
2019-05-30T14:06:18.874Z,2.25
2019-05-30T14:11:22.883Z,2.22
2019-05-30T14:16:26.845Z,2.22
2019-05-30T14:21:30.773Z,2.60
2019-05-30T14:26:34.793Z,3.95
2019-05-30T14:31:38.735Z,3.35
2019-05-30T14:36:42.980Z,2.95
2019-05-30T14:41:46.958Z,3.00
2019-05-30T14:46:50.990Z,5.20
2019-05-30T14:51:55.037Z,6.10
2019-05-30T14:56:59.016Z,4.50
2019-05-30T15:02:03.079Z,4.78
2019-05-30T15:07:07.422Z,8.53
2019-05-30T15:12:12.664Z,8.93
2019-05-30T15:17:16.796Z,9.58
2019-05-30T15:22:20.745Z,8.15
2019-05-30T15:27:24.675Z,11.00
2019-05-30T15:32:28.613Z,12.23
2019-05-30T15:37:32.539Z,11.00
2019-05-30T15:42:36.498Z,10.98
2019-05-30T15:47:40.558Z,9.85
2019-05-30T15:52:44.540Z,9.28
2019-05-30T15:57:48.702Z,5.47
2019-05-30T16:02:52.742Z,5.28
2019-05-30T16:08:01.145Z,6.62
2019-05-30T16:13:05.385Z,3.85
2019-05-30T16:18:09.331Z,4.30
2019-05-30T16:23:14.557Z,3.25
2019-05-30T16:28:19.549Z,3.42
2019-05-30T16:33:23.751Z,3.00
2019-05-30T16:38:27.694Z,3.05
2019-05-30T16:43:31.707Z,2.80
2019-05-30T16:48:35.722Z,2.30
2019-05-30T16:53:39.759Z,2.37
2019-05-30T16:58:43.769Z,2.60
2019-05-30T17:03:47.866Z,2.70
2019-05-30T17:08:51.853Z,2.75
2019-05-30T17:13:55.745Z,2.47
2019-05-30T17:18:59.714Z,2.50
2019-05-30T17:24:03.659Z,2.52
2019-05-30T17:29:07.591Z,2.55
2019-05-30T17:34:11.539Z,2.65
2019-05-30T17:39:15.784Z,3.52
2019-05-30T17:44:20.968Z,5.33
2019-05-30T17:49:25.844Z,3.37
2019-05-30T17:54:30.087Z,3.22
2019-05-30T17:59:34.039Z,3.33
2019-05-30T18:04:37.995Z,3.20
2019-05-30T18:09:41.945Z,3.30
2019-05-30T18:14:45.885Z,3.70
2019-05-30T18:19:49.850Z,4.92
2019-05-30T18:24:53.813Z,7.78
2019-05-30T18:29:57.725Z,4.20
2019-05-30T18:35:01.688Z,4.00
2019-05-30T18:40:09.211Z,4.33
2019-05-30T18:45:13.544Z,4.10
2019-05-30T18:50:17.885Z,4.12
2019-05-30T18:55:21.824Z,4.28
2019-05-30T19:00:26.915Z,3.80
2019-05-30T19:05:31.034Z,3.52
2019-05-30T19:10:36.648Z,3.77
2019-05-30T19:15:40.747Z,4.50
2019-05-30T19:20:44.704Z,9.08
2019-05-30T19:25:49.965Z,5.92
2019-05-30T19:30:53.939Z,5.50
2019-05-30T19:35:57.875Z,4.37
2019-05-30T19:41:01.876Z,4.78
2019-05-30T19:46:05.818Z,4.20
2019-05-30T19:51:09.925Z,4.87
2019-05-30T19:56:13.926Z,4.42
2019-05-30T20:01:18.007Z,4.50
2019-05-30T20:06:24.765Z,4.33
2019-05-30T20:11:27.766Z,4.50
2019-05-30T20:16:31.871Z,5.10
2019-05-30T20:21:35.975Z,4.80
2019-05-30T20:26:40.658Z,5.83
2019-05-30T20:31:45.771Z,5.37
2019-05-30T20:36:50.017Z,5.30
2019-05-30T20:41:54.101Z,5.12
2019-05-30T20:46:58.226Z,5.03
2019-05-30T20:52:02.214Z,4.80
2019-05-30T20:57:06.148Z,6.00
2019-05-30T21:02:10.089Z,5.35
2019-05-30T21:07:14.447Z,6.45
2019-05-30T21:12:36.462Z,6.10
2019-05-30T21:17:28.388Z,5.83
2019-05-30T21:22:32.342Z,6.35
2019-05-30T21:27:36.939Z,6.80
2019-05-30T21:32:42.044Z,8.30
2019-05-30T21:37:47.813Z,8.53
2019-05-30T21:43:05.158Z,7.15
2019-05-30T21:47:57.529Z,6.62
2019-05-30T21:53:01.500Z,5.45
2019-05-30T21:58:05.541Z,6.12
2019-05-30T22:03:09.576Z,5.92
2019-05-30T22:08:13.519Z,5.65
2019-05-30T22:13:17.448Z,5.33
2019-05-30T22:18:21.396Z,5.70
2019-05-30T22:23:25.435Z,5.12
2019-05-30T22:28:29.604Z,4.78
2019-05-30T22:33:33.644Z,5.80
2019-05-30T22:38:37.624Z,5.50
2019-05-30T22:43:41.637Z,4.92
2019-05-30T22:48:46.459Z,5.65
2019-05-30T22:53:51.179Z,5.62
2019-05-30T22:58:55.761Z,5.67
2019-05-30T23:03:59.913Z,5.60
2019-05-30T23:09:05.763Z,5.12
2019-05-30T23:14:09.741Z,6.10
2019-05-30T23:19:13.676Z,5.28
2019-05-30T23:24:17.619Z,5.80
2019-05-30T23:29:21.542Z,7.60
2019-05-30T23:34:25.557Z,6.22
2019-05-30T23:39:29.467Z,6.67
2019-05-30T23:44:33.553Z,6.25
2019-05-30T23:49:37.556Z,5.78
2019-05-30T23:54:41.697Z,4.92
2019-05-30T23:59:45.581Z,5.50
